Eems Servant — PBTI — position and weather

sailwx.info

Track history (hours):
 
Tides and Currents Weather Stations Pressure Air Temp Water Temp Dewpoint Dewpoint Depression Visibility Wind Speed Wind Dir Waves Ship Positions

Eems Servant

Last reported at 2014-Oct-30 19:28 UTC. Time now 2014-Oct-30 22:56 UTC.
Position N 58°26' E 005°59'.

Length 87 m; draft 4 m.

Type: Cargo ship. MMSI: 246236000.

Date/timePositionNaut miles runAvg speedWind from/ knotsBaromVisibWave heightAir tempDewpointWater temp
2014-Oct-30 19:28N 58°26' E 005°59'5 5.6
2014-Oct-30 18:33N 58°21' E 006°03'8 7.5
2014-Oct-30 17:33N 58°15' E 006°11'7 6.6
2014-Oct-30 16:33N 58°09' E 006°06'8 8.0
2014-Oct-30 15:32N 58°02' E 005°60'181 9.0
2014-Oct-29 19:25N 55°02' E 005°16'54 8.5
2014-Oct-29 13:07N 54°09' E 004°60'5 8.4
2014-Oct-29 12:33N 54°05' E 004°58'18 8.2
2014-Oct-29 10:20N 53°47' E 004°52'18 8.4
2014-Oct-29 08:12N 53°29' E 004°44'36 9.8
2014-Oct-29 04:33N 52°58' E 004°18'9 8.7
2014-Oct-29 03:33N 52°50' E 004°11'8 8.4
2014-Oct-29 02:33N 52°43' E 004°03'8 8.1
2014-Oct-29 01:34N 52°37' E 003°54'16 7.7
2014-Oct-28 23:28N 52°26' E 003°35'10 7.5
2014-Oct-28 22:09N 52°18' E 003°25'5 8.0
2014-Oct-28 21:32N 52°14' E 003°19'8 8.5
2014-Oct-28 20:33N 52°08' E 003°10'19 9.5
2014-Oct-28 18:30N 51°54' E 002°49'1110.3
2014-Oct-28 17:27N 51°46' E 002°37'1010.6
2014-Oct-28 16:31N 51°38' E 002°27'1111.1
2014-Oct-28 15:33N 51°29' E 002°17'1111.0
2014-Oct-28 14:34N 51°20' E 002°08'1110.6
2014-Oct-28 13:34N 51°12' E 001°58'1111.0
2014-Oct-28 12:33N 51°04' E 001°45'1110.2
2014-Oct-28 11:31N 50°57' E 001°33'98 7.9
2014-Oct-27 23:08N 49°43' W 000°08'610.5
2014-Oct-27 22:34N 49°37' W 000°10'8 8.2
2014-Oct-27 21:33N 49°30' W 000°06'8 8.2
2014-Oct-27 20:33N 49°26' E 000°06'1010.0
2014-Oct-27 19:33N 49°26' E 000°21'1 0.0
2014-Oct-26 12:33N 49°27' E 000°22'1110.6
2014-Oct-26 11:33N 49°26' E 000°06'9 8.7
2014-Oct-26 10:33N 49°29' W 000°07'5 5.1
2014-Oct-26 09:33N 49°32' W 000°13'5 5.1
2014-Oct-26 08:33N 49°35' W 000°20'6 5.8
2014-Oct-26 07:33N 49°38' W 000°27'7 6.3
2014-Oct-26 06:28N 49°42' W 000°35'63 6.2
2014-Oct-25 20:14N 50°21' W 001°53'5 7.8
2014-Oct-25 19:33N 50°24' W 001°60'7 7.4
2014-Oct-25 18:33N 50°28' W 002°09'6 6.4
2014-Oct-25 17:33N 50°32' W 002°17'5 0.2
2014-Oct-24 16:09N 50°32' W 002°24'16 7.9
2014-Oct-24 14:05N 50°20' W 002°41'4 7.8
2014-Oct-24 13:33N 50°17' W 002°46'19 8.0
2014-Oct-24 11:10N 50°03' W 003°06'5 8.6
2014-Oct-24 10:33N 49°59' W 003°12'147 8.2
2014-Oct-23 16:29N 47°52' W 005°05'136 9.0
2014-Oct-23 01:17N 46°32' W 002°22'6 8.8
2014-Oct-23 00:33N 46°28' W 002°14'9 8.7
2014-Oct-22 23:34N 46°23' W 002°04'9 8.6
2014-Oct-22 22:33N 46°17' W 001°55'9 8.7
2014-Oct-22 21:33N 46°12' W 001°45'  
Track history (hours):
 
Tides and Currents Weather Stations Pressure Air Temp Water Temp Dewpoint Dewpoint Depression Visibility Wind Speed Wind Dir Waves Ship Positions

Eems Servant

Last reported at 2014-Oct-30 19:28 UTC. Time now 2014-Oct-30 22:56 UTC.
Position N 58°26' E 005°59'.

Length 87 m; draft 4 m.

Type: Cargo ship. MMSI: 246236000.

Date/timePositionNaut miles runAvg speedWind from/ knotsBaromVisibWave heightAir tempDewpointWater temp
2014-Oct-30 19:28N 58°26' E 005°59'5 5.6
2014-Oct-30 18:33N 58°21' E 006°03'8 7.5
2014-Oct-30 17:33N 58°15' E 006°11'7 6.6
2014-Oct-30 16:33N 58°09' E 006°06'8 8.0
2014-Oct-30 15:32N 58°02' E 005°60'181 9.0
2014-Oct-29 19:25N 55°02' E 005°16'54 8.5
2014-Oct-29 13:07N 54°09' E 004°60'5 8.4
2014-Oct-29 12:33N 54°05' E 004°58'18 8.2
2014-Oct-29 10:20N 53°47' E 004°52'18 8.4
2014-Oct-29 08:12N 53°29' E 004°44'36 9.8
2014-Oct-29 04:33N 52°58' E 004°18'9 8.7
2014-Oct-29 03:33N 52°50' E 004°11'8 8.4
2014-Oct-29 02:33N 52°43' E 004°03'8 8.1
2014-Oct-29 01:34N 52°37' E 003°54'16 7.7
2014-Oct-28 23:28N 52°26' E 003°35'10 7.5
2014-Oct-28 22:09N 52°18' E 003°25'5 8.0
2014-Oct-28 21:32N 52°14' E 003°19'8 8.5
2014-Oct-28 20:33N 52°08' E 003°10'19 9.5
2014-Oct-28 18:30N 51°54' E 002°49'1110.3
2014-Oct-28 17:27N 51°46' E 002°37'1010.6
2014-Oct-28 16:31N 51°38' E 002°27'1111.1
2014-Oct-28 15:33N 51°29' E 002°17'1111.0
2014-Oct-28 14:34N 51°20' E 002°08'1110.6
2014-Oct-28 13:34N 51°12' E 001°58'1111.0
2014-Oct-28 12:33N 51°04' E 001°45'1110.2
2014-Oct-28 11:31N 50°57' E 001°33'98 7.9
2014-Oct-27 23:08N 49°43' W 000°08'610.5
2014-Oct-27 22:34N 49°37' W 000°10'8 8.2
2014-Oct-27 21:33N 49°30' W 000°06'8 8.2
2014-Oct-27 20:33N 49°26' E 000°06'1010.0
2014-Oct-27 19:33N 49°26' E 000°21'1 0.0
2014-Oct-26 12:33N 49°27' E 000°22'1110.6
2014-Oct-26 11:33N 49°26' E 000°06'9 8.7
2014-Oct-26 10:33N 49°29' W 000°07'5 5.1
2014-Oct-26 09:33N 49°32' W 000°13'5 5.1
2014-Oct-26 08:33N 49°35' W 000°20'6 5.8
2014-Oct-26 07:33N 49°38' W 000°27'7 6.3
2014-Oct-26 06:28N 49°42' W 000°35'63 6.2
2014-Oct-25 20:14N 50°21' W 001°53'5 7.8
2014-Oct-25 19:33N 50°24' W 001°60'7 7.4
2014-Oct-25 18:33N 50°28' W 002°09'6 6.4
2014-Oct-25 17:33N 50°32' W 002°17'5 0.2
2014-Oct-24 16:09N 50°32' W 002°24'16 7.9
2014-Oct-24 14:05N 50°20' W 002°41'4 7.8
2014-Oct-24 13:33N 50°17' W 002°46'19 8.0
2014-Oct-24 11:10N 50°03' W 003°06'5 8.6
2014-Oct-24 10:33N 49°59' W 003°12'147 8.2
2014-Oct-23 16:29N 47°52' W 005°05'136 9.0
2014-Oct-23 01:17N 46°32' W 002°22'6 8.8
2014-Oct-23 00:33N 46°28' W 002°14'9 8.7
2014-Oct-22 23:34N 46°23' W 002°04'9 8.6
2014-Oct-22 22:33N 46°17' W 001°55'9 8.7
2014-Oct-22 21:33N 46°12' W 001°45'  

Dump ship's entire track history